createdAt,value
2018-07-20T00:00:41.499Z,1008.22
2018-07-20T00:01:41.486Z,1008.16
2018-07-20T00:02:41.530Z,1008.19
2018-07-20T00:03:41.463Z,1008.23
2018-07-20T00:04:41.460Z,1008.19
2018-07-20T00:05:41.445Z,1008.17
2018-07-20T00:06:42.204Z,1008.15
2018-07-20T00:07:41.481Z,1008.12
2018-07-20T00:08:41.411Z,1008.14
2018-07-20T00:09:41.404Z,1008.10
2018-07-20T00:10:41.386Z,1008.11
2018-07-20T00:11:42.208Z,1008.04
2018-07-20T00:12:41.428Z,1008.02
2018-07-20T00:13:41.356Z,1008.09
2018-07-20T00:14:41.344Z,1008.09
2018-07-20T00:15:41.334Z,1008.02
2018-07-20T00:16:41.338Z,1008.03
2018-07-20T00:17:41.372Z,1008.08
2018-07-20T00:18:41.306Z,1008.05
2018-07-20T00:19:41.292Z,1008.06
2018-07-20T00:20:41.298Z,1008.04
2018-07-20T00:21:41.270Z,1008.01
2018-07-20T00:22:41.317Z,1008.05
2018-07-20T00:23:41.250Z,1008.14
2018-07-20T00:24:41.234Z,1008.09
2018-07-20T00:25:41.223Z,1008.10
2018-07-20T00:26:41.216Z,1008.10
2018-07-20T00:27:41.773Z,1008.08
2018-07-20T00:28:41.195Z,1008.12
2018-07-20T00:29:41.184Z,1008.08
2018-07-20T00:30:41.174Z,1008.11
2018-07-20T00:31:41.165Z,1008.07
2018-07-20T00:32:41.225Z,1008.04
2018-07-20T00:33:41.140Z,1008.02
2018-07-20T00:34:41.132Z,1008.10
2018-07-20T00:35:41.123Z,1008.07
2018-07-20T00:36:41.109Z,1008.02
2018-07-20T00:37:41.157Z,1008.12
2018-07-20T00:38:41.088Z,1008.06
2018-07-20T00:39:41.085Z,1008.14
2018-07-20T00:40:41.068Z,1008.12
2018-07-20T00:41:41.054Z,1008.10
2018-07-20T00:42:41.107Z,1008.13
2018-07-20T00:43:41.032Z,1008.11
2018-07-20T00:44:41.022Z,1008.07
2018-07-20T00:45:41.010Z,1008.08
2018-07-20T00:46:41.002Z,1008.06
2018-07-20T00:47:41.051Z,1008.09
2018-07-20T00:48:41.703Z,1008.08
2018-07-20T00:49:40.968Z,1008.04
2018-07-20T00:50:40.961Z,1008.03
2018-07-20T00:51:40.960Z,1008.03
2018-07-20T00:52:40.997Z,1008.02
2018-07-20T00:53:40.928Z,1007.99
2018-07-20T00:54:40.916Z,1008.01
2018-07-20T00:55:40.903Z,1008.00
2018-07-20T00:56:40.891Z,1008.02
2018-07-20T00:57:40.941Z,1007.99
2018-07-20T00:58:40.871Z,1007.98
2018-07-20T00:59:40.861Z,1007.97
2018-07-20T01:00:40.847Z,1007.99
2018-07-20T01:01:40.847Z,1007.99
2018-07-20T01:02:40.891Z,1007.95
2018-07-20T01:03:40.819Z,1007.96
2018-07-20T01:04:40.805Z,1007.92
2018-07-20T01:05:40.795Z,1007.96
2018-07-20T01:06:40.783Z,1007.90
2018-07-20T01:07:40.833Z,1007.91
2018-07-20T01:08:40.764Z,1007.95
2018-07-20T01:09:41.704Z,1007.93
2018-07-20T01:10:40.743Z,1007.91
2018-07-20T01:11:40.733Z,1008.02
2018-07-20T01:12:40.781Z,1008.01
2018-07-20T01:13:40.710Z,1007.95
2018-07-20T01:14:40.700Z,1007.98
2018-07-20T01:15:40.687Z,1008.01
2018-07-20T01:16:40.690Z,1008.03
2018-07-20T01:17:40.728Z,1008.02
2018-07-20T01:18:40.652Z,1008.03
2018-07-20T01:19:40.648Z,1008.00
2018-07-20T01:20:40.640Z,1008.00
2018-07-20T01:21:40.620Z,1007.97
2018-07-20T01:22:40.670Z,1008.00
2018-07-20T01:23:40.598Z,1007.98
2018-07-20T01:24:40.587Z,1008.04
2018-07-20T01:25:40.578Z,1008.00
2018-07-20T01:26:40.567Z,1007.97
2018-07-20T01:27:40.617Z,1007.94
2018-07-20T01:28:40.548Z,1007.93
2018-07-20T01:29:40.537Z,1007.92
2018-07-20T01:30:41.196Z,1007.96
2018-07-20T01:31:40.515Z,1007.94
2018-07-20T01:32:40.562Z,1007.99
2018-07-20T01:33:40.490Z,1007.95
2018-07-20T01:34:40.478Z,1007.94
2018-07-20T01:35:40.471Z,1007.94
2018-07-20T01:36:40.457Z,1008.00
2018-07-20T01:37:40.506Z,1007.91
2018-07-20T01:38:40.437Z,1007.94
2018-07-20T01:39:40.429Z,1007.91
2018-07-20T01:40:40.413Z,1007.89
2018-07-20T01:41:40.404Z,1007.95
2018-07-20T01:42:40.465Z,1007.95
2018-07-20T01:43:40.379Z,1007.92
2018-07-20T01:44:40.367Z,1007.95
2018-07-20T01:45:40.359Z,1007.91
2018-07-20T01:46:40.346Z,1007.88
2018-07-20T01:47:40.337Z,1007.86
2018-07-20T01:48:40.385Z,1007.83
2018-07-20T01:49:40.315Z,1007.89
2018-07-20T01:50:40.304Z,1007.84
2018-07-20T01:51:42.207Z,1007.89
2018-07-20T01:52:40.282Z,1007.90
2018-07-20T01:53:40.340Z,1007.91
2018-07-20T01:54:40.260Z,1007.88
2018-07-20T01:55:40.251Z,1007.90
2018-07-20T01:56:40.237Z,1007.84
2018-07-20T01:57:40.230Z,1007.89
2018-07-20T01:58:40.274Z,1007.81
2018-07-20T01:59:40.210Z,1007.85
2018-07-20T02:00:40.193Z,1007.87
2018-07-20T02:01:40.182Z,1007.83
2018-07-20T02:02:40.172Z,1007.87
2018-07-20T02:03:40.219Z,1007.87
2018-07-20T02:04:40.149Z,1007.85
2018-07-20T02:05:40.144Z,1007.84
2018-07-20T02:06:40.131Z,1007.78
2018-07-20T02:07:40.119Z,1007.86
2018-07-20T02:08:40.170Z,1007.88
2018-07-20T02:09:40.097Z,1007.84
2018-07-20T02:10:40.088Z,1007.90
2018-07-20T02:11:40.116Z,1007.86
2018-07-20T02:12:41.693Z,1007.93
2018-07-20T02:13:40.114Z,1007.79
2018-07-20T02:14:40.042Z,1007.86
2018-07-20T02:15:40.031Z,1007.87
2018-07-20T02:16:40.026Z,1007.78
2018-07-20T02:17:40.010Z,1007.88
2018-07-20T02:18:40.056Z,1007.80
2018-07-20T02:19:39.989Z,1007.79
2018-07-20T02:20:39.978Z,1007.86
2018-07-20T02:21:39.971Z,1007.90
2018-07-20T02:22:39.959Z,1007.85
2018-07-20T02:23:40.003Z,1007.92
2018-07-20T02:24:39.934Z,1007.90
2018-07-20T02:25:39.922Z,1007.82
2018-07-20T02:26:39.914Z,1007.82
2018-07-20T02:27:39.903Z,1007.85
2018-07-20T02:28:39.956Z,1007.82
2018-07-20T02:29:39.881Z,1007.86
2018-07-20T02:30:39.870Z,1007.88
2018-07-20T02:31:39.859Z,1007.88
2018-07-20T02:32:39.848Z,1007.83
2018-07-20T02:33:40.263Z,1007.84
2018-07-20T02:34:39.829Z,1007.90
2018-07-20T02:35:39.818Z,1007.90
2018-07-20T02:36:39.806Z,1007.82
2018-07-20T02:37:39.795Z,1007.81
2018-07-20T02:38:39.845Z,1007.82
2018-07-20T02:39:39.773Z,1007.77
2018-07-20T02:40:39.762Z,1007.79
2018-07-20T02:41:39.751Z,1007.80
2018-07-20T02:42:39.743Z,1007.78
2018-07-20T02:43:39.798Z,1007.79
2018-07-20T02:44:39.723Z,1007.83
2018-07-20T02:45:39.710Z,1007.73
2018-07-20T02:46:39.702Z,1007.76
2018-07-20T02:47:39.695Z,1007.80
2018-07-20T02:48:39.737Z,1007.80
2018-07-20T02:49:39.671Z,1007.75
2018-07-20T02:50:39.659Z,1007.75
2018-07-20T02:51:39.649Z,1007.67
2018-07-20T02:52:39.638Z,1007.70
2018-07-20T02:53:39.688Z,1007.71
2018-07-20T02:54:40.190Z,1007.69
2018-07-20T02:55:39.602Z,1007.67
2018-07-20T02:56:39.590Z,1007.69
2018-07-20T02:57:39.587Z,1007.64
2018-07-20T02:58:39.635Z,1007.67
2018-07-20T02:59:39.575Z,1007.73
2018-07-20T03:00:39.554Z,1007.75
2018-07-20T03:01:39.540Z,1007.70
2018-07-20T03:02:39.533Z,1007.71
2018-07-20T03:03:39.588Z,1007.72
2018-07-20T03:04:39.507Z,1007.75
2018-07-20T03:05:39.498Z,1007.69
2018-07-20T03:06:39.485Z,1007.70
2018-07-20T03:07:39.477Z,1007.73
2018-07-20T03:08:39.527Z,1007.67
2018-07-20T03:09:39.457Z,1007.68
2018-07-20T03:10:39.444Z,1007.68
2018-07-20T03:11:39.433Z,1007.65
2018-07-20T03:12:39.426Z,1007.66
2018-07-20T03:13:39.475Z,1007.61
2018-07-20T03:14:39.402Z,1007.57
2018-07-20T03:15:42.187Z,1007.57
2018-07-20T03:16:39.389Z,1007.62
2018-07-20T03:17:39.372Z,1007.62
2018-07-20T03:18:39.421Z,1007.64
2018-07-20T03:19:39.350Z,1007.68
2018-07-20T03:20:39.342Z,1007.69
2018-07-20T03:21:39.325Z,1007.67
2018-07-20T03:22:39.314Z,1007.70
2018-07-20T03:23:39.376Z,1007.67
2018-07-20T03:24:39.297Z,1007.65
2018-07-20T03:25:39.283Z,1007.64
2018-07-20T03:26:39.277Z,1007.67
2018-07-20T03:27:39.264Z,1007.68
2018-07-20T03:28:39.327Z,1007.66
2018-07-20T03:29:39.241Z,1007.66
2018-07-20T03:30:47.745Z,1007.70
2018-07-20T03:31:47.427Z,1007.68
2018-07-20T03:32:39.290Z,1007.74
2018-07-20T03:33:39.200Z,1007.77
2018-07-20T03:34:39.247Z,1007.70
2018-07-20T03:35:39.178Z,1007.74
2018-07-20T03:36:39.170Z,1007.71
2018-07-20T03:37:39.158Z,1007.77
2018-07-20T03:38:47.285Z,1007.81
2018-07-20T03:39:47.230Z,1007.75
2018-07-20T03:40:39.123Z,1007.73
2018-07-20T03:41:39.122Z,1007.71
2018-07-20T03:42:39.100Z,1007.76
2018-07-20T03:43:39.090Z,1007.71
2018-07-20T03:44:39.143Z,1007.67
2018-07-20T03:45:39.070Z,1007.67
2018-07-20T03:46:39.058Z,1007.70
2018-07-20T03:47:39.048Z,1007.70
2018-07-20T03:48:39.040Z,1007.67
2018-07-20T03:49:39.094Z,1007.70
2018-07-20T03:50:39.015Z,1007.67
2018-07-20T03:51:39.004Z,1007.69
2018-07-20T03:52:38.995Z,1007.67
2018-07-20T03:53:38.985Z,1007.70
2018-07-20T03:54:39.037Z,1007.67
2018-07-20T03:55:39.813Z,1007.69
2018-07-20T03:56:38.951Z,1007.63
2018-07-20T03:57:38.940Z,1007.63
2018-07-20T03:58:38.945Z,1007.62
2018-07-20T03:59:38.981Z,1007.61
2018-07-20T04:00:39.816Z,1007.65
2018-07-20T04:01:38.899Z,1007.60
2018-07-20T04:02:38.888Z,1007.54
2018-07-20T04:03:38.873Z,1007.55
2018-07-20T04:04:38.929Z,1007.56
2018-07-20T04:05:38.854Z,1007.59
2018-07-20T04:06:38.846Z,1007.54
2018-07-20T04:07:38.832Z,1007.55
2018-07-20T04:08:38.821Z,1007.50
2018-07-20T04:09:38.873Z,1007.56
2018-07-20T04:10:38.802Z,1007.56
2018-07-20T04:11:38.793Z,1007.51
2018-07-20T04:12:38.782Z,1007.46
2018-07-20T04:13:39.313Z,1007.45
2018-07-20T04:14:38.823Z,1007.46
2018-07-20T04:15:38.749Z,1007.44
2018-07-20T04:16:38.737Z,1007.44
2018-07-20T04:17:38.729Z,1007.46
2018-07-20T04:18:38.715Z,1007.45
2018-07-20T04:19:38.771Z,1007.44
2018-07-20T04:20:38.696Z,1007.43
2018-07-20T04:21:39.310Z,1007.44
2018-07-20T04:22:38.674Z,1007.40
2018-07-20T04:23:38.668Z,1007.40
2018-07-20T04:24:38.718Z,1007.47
2018-07-20T04:25:38.641Z,1007.43
2018-07-20T04:26:38.632Z,1007.38
2018-07-20T04:27:38.621Z,1007.39
2018-07-20T04:28:38.610Z,1007.38
2018-07-20T04:29:38.657Z,1007.41
2018-07-20T04:30:38.588Z,1007.38
2018-07-20T04:31:38.575Z,1007.34
2018-07-20T04:32:38.566Z,1007.40
2018-07-20T04:33:38.557Z,1007.39
2018-07-20T04:34:38.605Z,1007.36
2018-07-20T04:35:38.536Z,1007.40
2018-07-20T04:36:38.534Z,1007.41
2018-07-20T04:37:38.513Z,1007.34
2018-07-20T04:38:38.542Z,1007.42
2018-07-20T04:39:38.552Z,1007.39
2018-07-20T04:40:38.480Z,1007.38
2018-07-20T04:41:38.472Z,1007.32
2018-07-20T04:42:39.311Z,1007.37
2018-07-20T04:43:38.447Z,1007.36
2018-07-20T04:44:38.504Z,1007.34
2018-07-20T04:45:38.425Z,1007.37
2018-07-20T04:46:38.416Z,1007.34
2018-07-20T04:47:38.416Z,1007.35
2018-07-20T04:48:38.391Z,1007.42
2018-07-20T04:49:38.439Z,1007.41
2018-07-20T04:50:38.373Z,1007.40
2018-07-20T04:51:38.358Z,1007.39
2018-07-20T04:52:38.350Z,1007.38
2018-07-20T04:53:38.339Z,1007.38
2018-07-20T04:54:38.386Z,1007.34
2018-07-20T04:55:38.317Z,1007.40
2018-07-20T04:56:38.306Z,1007.38
2018-07-20T04:57:38.292Z,1007.41
2018-07-20T04:58:38.315Z,1007.40
2018-07-20T04:59:38.333Z,1007.38
2018-07-20T05:00:38.263Z,1007.38
2018-07-20T05:01:38.260Z,1007.42
2018-07-20T05:02:38.239Z,1007.40
2018-07-20T05:03:38.872Z,1007.31
2018-07-20T05:04:38.276Z,1007.33
2018-07-20T05:05:38.206Z,1007.34
2018-07-20T05:06:38.198Z,1007.31
2018-07-20T05:07:38.195Z,1007.35
2018-07-20T05:08:38.176Z,1007.39
2018-07-20T05:09:38.241Z,1007.40
2018-07-20T05:10:38.154Z,1007.38
2018-07-20T05:11:38.143Z,1007.33
2018-07-20T05:12:38.132Z,1007.35
2018-07-20T05:13:38.121Z,1007.32
2018-07-20T05:14:38.107Z,1007.33
2018-07-20T05:15:38.154Z,1007.33
2018-07-20T05:16:38.090Z,1007.31
2018-07-20T05:17:38.076Z,1007.36
2018-07-20T05:18:38.071Z,1007.27
2018-07-20T05:19:38.054Z,1007.32
2018-07-20T05:20:38.133Z,1007.30
2018-07-20T05:21:38.035Z,1007.30
2018-07-20T05:22:38.037Z,1007.26
2018-07-20T05:23:38.013Z,1007.30
2018-07-20T05:24:38.808Z,1007.28
2018-07-20T05:25:38.062Z,1007.34
2018-07-20T05:26:37.977Z,1007.32
2018-07-20T05:27:37.966Z,1007.36
2018-07-20T05:28:37.963Z,1007.35
2018-07-20T05:29:37.949Z,1007.30
2018-07-20T05:30:37.997Z,1007.36
2018-07-20T05:31:37.924Z,1007.28
2018-07-20T05:32:37.963Z,1007.28
2018-07-20T05:33:37.902Z,1007.28
2018-07-20T05:34:37.902Z,1007.33
2018-07-20T05:35:37.944Z,1007.31
2018-07-20T05:36:37.872Z,1007.26
2018-07-20T05:37:37.861Z,1007.27
2018-07-20T05:38:37.850Z,1007.32
2018-07-20T05:39:37.841Z,1007.29
2018-07-20T05:40:37.886Z,1007.29
2018-07-20T05:41:37.814Z,1007.33
2018-07-20T05:42:37.806Z,1007.30
2018-07-20T05:43:37.792Z,1007.29
2018-07-20T05:44:37.786Z,1007.28
2018-07-20T05:45:38.380Z,1007.33
2018-07-20T05:46:37.761Z,1007.34
2018-07-20T05:47:37.771Z,1007.27
2018-07-20T05:48:37.739Z,1007.33
2018-07-20T05:49:37.728Z,1007.31
2018-07-20T05:50:37.780Z,1007.34
2018-07-20T05:51:37.711Z,1007.34
2018-07-20T05:52:37.698Z,1007.29
2018-07-20T05:53:37.687Z,1007.25
2018-07-20T05:54:38.308Z,1007.25
2018-07-20T05:55:37.726Z,1007.29
2018-07-20T05:56:37.653Z,1007.28
2018-07-20T05:57:37.645Z,1007.28
2018-07-20T05:58:37.634Z,1007.28
2018-07-20T05:59:37.623Z,1007.27
2018-07-20T06:00:37.675Z,1007.33
2018-07-20T06:01:37.601Z,1007.28
2018-07-20T06:02:37.590Z,1007.33
2018-07-20T06:03:37.624Z,1007.33
2018-07-20T06:04:37.572Z,1007.28
2018-07-20T06:05:37.683Z,1007.33
2018-07-20T06:06:38.308Z,1007.26
2018-07-20T06:07:37.538Z,1007.27
2018-07-20T06:08:37.542Z,1007.27
2018-07-20T06:09:37.512Z,1007.31
2018-07-20T06:10:37.562Z,1007.31
2018-07-20T06:11:37.490Z,1007.33
2018-07-20T06:12:37.489Z,1007.35
2018-07-20T06:13:37.474Z,1007.30
2018-07-20T06:14:37.462Z,1007.27
2018-07-20T06:15:37.517Z,1007.20
2018-07-20T06:16:37.438Z,1007.27
2018-07-20T06:17:37.426Z,1007.28
2018-07-20T06:18:37.417Z,1007.30
2018-07-20T06:19:37.405Z,1007.34
2018-07-20T06:20:37.457Z,1007.28
2018-07-20T06:21:37.385Z,1007.30
2018-07-20T06:22:37.375Z,1007.30
2018-07-20T06:23:37.378Z,1007.29
2018-07-20T06:24:37.362Z,1007.30
2018-07-20T06:25:37.412Z,1007.25
2018-07-20T06:26:37.345Z,1007.28
2018-07-20T06:27:38.310Z,1007.27
2018-07-20T06:28:37.308Z,1007.31
2018-07-20T06:29:37.318Z,1007.27
2018-07-20T06:30:37.352Z,1007.26
2018-07-20T06:31:37.292Z,1007.27
2018-07-20T06:32:37.268Z,1007.29
2018-07-20T06:33:37.263Z,1007.28
2018-07-20T06:34:37.257Z,1007.28
2018-07-20T06:35:37.307Z,1007.31
2018-07-20T06:36:37.226Z,1007.20
2018-07-20T06:37:37.218Z,1007.20
2018-07-20T06:38:37.205Z,1007.21
2018-07-20T06:39:37.193Z,1007.25
2018-07-20T06:40:37.306Z,1007.25
2018-07-20T06:41:37.173Z,1007.23
2018-07-20T06:42:37.177Z,1007.21
2018-07-20T06:43:37.153Z,1007.20
2018-07-20T06:44:37.141Z,1007.23
2018-07-20T06:45:37.189Z,1007.26
2018-07-20T06:46:37.171Z,1007.27
2018-07-20T06:47:37.105Z,1007.28
2018-07-20T06:48:37.802Z,1007.23
2018-07-20T06:49:37.102Z,1007.25
2018-07-20T06:50:37.149Z,1007.24
2018-07-20T06:51:37.801Z,1007.21
2018-07-20T06:52:37.055Z,1007.24
2018-07-20T06:53:37.044Z,1007.27
2018-07-20T06:54:37.049Z,1007.19
2018-07-20T06:55:37.019Z,1007.25
2018-07-20T06:56:37.075Z,1007.24
2018-07-20T06:57:37.000Z,1007.29
2018-07-20T06:58:36.987Z,1007.33
2018-07-20T06:59:36.978Z,1007.34
2018-07-20T07:00:36.968Z,1007.31
2018-07-20T07:01:37.018Z,1007.36
2018-07-20T07:02:36.949Z,1007.33
2018-07-20T07:03:37.809Z,1007.34
2018-07-20T07:04:36.928Z,1007.28
2018-07-20T07:05:36.914Z,1007.33
2018-07-20T07:06:36.965Z,1007.39
2018-07-20T07:07:36.897Z,1007.44
2018-07-20T07:08:36.882Z,1007.46
2018-07-20T07:09:37.804Z,1007.38
2018-07-20T07:10:36.862Z,1007.40
2018-07-20T07:11:36.911Z,1007.37
2018-07-20T07:12:36.847Z,1007.44
2018-07-20T07:13:36.828Z,1007.50
2018-07-20T07:14:36.818Z,1007.39
2018-07-20T07:15:36.828Z,1007.42
2018-07-20T07:16:36.857Z,1007.46
2018-07-20T07:17:36.785Z,1007.43
2018-07-20T07:18:36.779Z,1007.40
2018-07-20T07:19:36.765Z,1007.38
2018-07-20T07:20:36.764Z,1007.37
2018-07-20T07:21:36.804Z,1007.42
2018-07-20T07:22:36.734Z,1007.37
2018-07-20T07:23:44.875Z,1007.37
2018-07-20T07:24:44.880Z,1007.26
2018-07-20T07:25:44.797Z,1007.33
2018-07-20T07:26:44.874Z,1007.28
2018-07-20T07:27:36.700Z,1007.32
2018-07-20T07:28:36.673Z,1007.31
2018-07-20T07:29:36.693Z,1007.30
2018-07-20T07:30:36.665Z,1007.28
2018-07-20T07:31:44.802Z,1007.30
2018-07-20T07:32:45.258Z,1007.34
2018-07-20T07:33:44.162Z,1007.25
2018-07-20T07:34:44.758Z,1007.31
2018-07-20T07:35:36.615Z,1007.33
2018-07-20T07:36:44.180Z,1007.36
2018-07-20T07:37:36.584Z,1007.35
2018-07-20T07:38:36.571Z,1007.37
2018-07-20T07:39:36.562Z,1007.42
2018-07-20T07:40:36.553Z,1007.34
2018-07-20T07:41:36.604Z,1007.40
2018-07-20T07:42:36.540Z,1007.43
2018-07-20T07:43:36.518Z,1007.45
2018-07-20T07:44:36.513Z,1007.41
2018-07-20T07:45:36.496Z,1007.45
2018-07-20T07:46:36.671Z,1007.45
2018-07-20T07:47:36.474Z,1007.47
2018-07-20T07:48:36.466Z,1007.48
2018-07-20T07:49:36.466Z,1007.42
2018-07-20T07:50:36.462Z,1007.47
2018-07-20T07:51:36.502Z,1007.49
2018-07-20T07:52:36.429Z,1007.48
2018-07-20T07:53:36.419Z,1007.46
2018-07-20T07:54:36.405Z,1007.45
2018-07-20T07:55:36.421Z,1007.44
2018-07-20T07:56:36.465Z,1007.41
2018-07-20T07:57:36.377Z,1007.38
2018-07-20T07:58:36.371Z,1007.30
2018-07-20T07:59:36.361Z,1007.28
2018-07-20T08:00:36.349Z,1007.30
2018-07-20T08:01:36.399Z,1007.28
2018-07-20T08:02:36.338Z,1007.24
2018-07-20T08:03:36.339Z,1007.18
2018-07-20T08:04:36.308Z,1007.23
2018-07-20T08:05:36.300Z,1007.17
2018-07-20T08:06:36.349Z,1007.27
2018-07-20T08:07:37.104Z,1007.27
2018-07-20T08:08:36.266Z,1007.30
2018-07-20T08:09:36.272Z,1007.34
2018-07-20T08:10:36.249Z,1007.32
2018-07-20T08:11:36.302Z,1007.43
2018-07-20T08:12:36.228Z,1007.47
2018-07-20T08:13:36.222Z,1007.47
2018-07-20T08:14:36.209Z,1007.47
2018-07-20T08:15:36.198Z,1007.52
2018-07-20T08:16:36.255Z,1007.51
2018-07-20T08:17:36.178Z,1007.53
2018-07-20T08:18:36.172Z,1007.49
2018-07-20T08:19:36.161Z,1007.45
2018-07-20T08:20:36.150Z,1007.49
2018-07-20T08:21:36.203Z,1007.44
2018-07-20T08:22:36.141Z,1007.47
2018-07-20T08:23:36.124Z,1007.46
2018-07-20T08:24:36.113Z,1007.47
2018-07-20T08:25:36.107Z,1007.43
2018-07-20T08:26:36.158Z,1007.36
2018-07-20T08:27:36.083Z,1007.47
2018-07-20T08:28:36.604Z,1007.41
2018-07-20T08:29:36.070Z,1007.43
2018-07-20T08:30:36.055Z,1007.47
2018-07-20T08:31:36.130Z,1007.50
2018-07-20T08:32:36.036Z,1007.43
2018-07-20T08:33:36.032Z,1007.47
2018-07-20T08:34:36.019Z,1007.48
2018-07-20T08:35:36.013Z,1007.45
2018-07-20T08:36:35.999Z,1007.41
2018-07-20T08:37:36.052Z,1007.42
2018-07-20T08:38:35.983Z,1007.50
2018-07-20T08:39:35.976Z,1007.48
2018-07-20T08:40:35.963Z,1007.41
2018-07-20T08:41:35.957Z,1007.46
2018-07-20T08:42:36.008Z,1007.41
2018-07-20T08:43:35.940Z,1007.43
2018-07-20T08:44:35.930Z,1007.39
2018-07-20T08:45:35.922Z,1007.39
2018-07-20T08:46:35.973Z,1007.40
2018-07-20T08:47:35.976Z,1007.33
2018-07-20T08:48:35.891Z,1007.33
2018-07-20T08:49:36.603Z,1007.34
2018-07-20T08:50:35.877Z,1007.36
2018-07-20T08:51:35.868Z,1007.40
2018-07-20T08:52:35.918Z,1007.29
2018-07-20T08:53:35.849Z,1007.29
2018-07-20T08:54:35.838Z,1007.31
2018-07-20T08:55:35.829Z,1007.33
2018-07-20T08:56:35.821Z,1007.34
2018-07-20T08:57:35.876Z,1007.44
2018-07-20T08:58:35.808Z,1007.42
2018-07-20T08:59:35.796Z,1007.41
2018-07-20T09:00:35.785Z,1007.42
2018-07-20T09:01:35.806Z,1007.43
2018-07-20T09:02:35.835Z,1007.36
2018-07-20T09:03:35.806Z,1007.39
2018-07-20T09:04:35.754Z,1007.41
2018-07-20T09:05:35.756Z,1007.40
2018-07-20T09:06:35.743Z,1007.41
2018-07-20T09:07:35.803Z,1007.43
2018-07-20T09:08:35.720Z,1007.45
2018-07-20T09:09:35.712Z,1007.45
2018-07-20T09:10:36.605Z,1007.47
2018-07-20T09:11:35.696Z,1007.39
2018-07-20T09:12:35.758Z,1007.36
2018-07-20T09:13:35.712Z,1007.40
2018-07-20T09:14:35.670Z,1007.42
2018-07-20T09:15:35.664Z,1007.42
2018-07-20T09:16:35.656Z,1007.44
2018-07-20T09:17:35.712Z,1007.43
2018-07-20T09:18:35.639Z,1007.41
2018-07-20T09:19:35.631Z,1007.43
2018-07-20T09:20:35.632Z,1007.44
2018-07-20T09:21:35.617Z,1007.46
2018-07-20T09:22:35.672Z,1007.42
2018-07-20T09:23:35.603Z,1007.40
2018-07-20T09:24:35.591Z,1007.46
2018-07-20T09:25:35.584Z,1007.46
2018-07-20T09:26:35.575Z,1007.44
2018-07-20T09:27:35.632Z,1007.47
2018-07-20T09:28:35.561Z,1007.44
2018-07-20T09:29:35.552Z,1007.45
2018-07-20T09:30:35.550Z,1007.44
2018-07-20T09:31:36.098Z,1007.45
2018-07-20T09:32:35.588Z,1007.40
2018-07-20T09:33:35.521Z,1007.40
2018-07-20T09:34:35.513Z,1007.38
2018-07-20T09:35:35.507Z,1007.45
2018-07-20T09:36:35.496Z,1007.41
2018-07-20T09:37:35.551Z,1007.42
2018-07-20T09:38:35.482Z,1007.41
2018-07-20T09:39:35.474Z,1007.46
2018-07-20T09:40:35.471Z,1007.35
2018-07-20T09:41:35.460Z,1007.38
2018-07-20T09:42:35.513Z,1007.33
2018-07-20T09:43:35.445Z,1007.36
2018-07-20T09:44:35.442Z,1007.40
2018-07-20T09:45:35.434Z,1007.37
2018-07-20T09:46:35.426Z,1007.34
2018-07-20T09:47:35.475Z,1007.41
2018-07-20T09:48:35.409Z,1007.39
2018-07-20T09:49:35.400Z,1007.42
2018-07-20T09:50:35.394Z,1007.44
2018-07-20T09:51:35.386Z,1007.44
2018-07-20T09:52:35.669Z,1007.40
2018-07-20T09:53:35.375Z,1007.41
2018-07-20T09:54:35.367Z,1007.43
2018-07-20T09:55:35.358Z,1007.40
2018-07-20T09:56:35.352Z,1007.40
2018-07-20T09:57:35.407Z,1007.40
2018-07-20T09:58:35.412Z,1007.39
2018-07-20T09:59:35.392Z,1007.38
2018-07-20T10:00:35.324Z,1007.37
2018-07-20T10:01:35.315Z,1007.41
2018-07-20T10:02:35.376Z,1007.44
2018-07-20T10:03:35.304Z,1007.41
2018-07-20T10:04:35.295Z,1007.45
2018-07-20T10:05:35.289Z,1007.40
2018-07-20T10:06:35.281Z,1007.42
2018-07-20T10:07:35.340Z,1007.44
2018-07-20T10:08:35.267Z,1007.43
2018-07-20T10:09:35.264Z,1007.44
2018-07-20T10:10:35.253Z,1007.43
2018-07-20T10:11:35.275Z,1007.41
2018-07-20T10:12:35.363Z,1007.37
2018-07-20T10:13:36.087Z,1007.36
2018-07-20T10:14:35.227Z,1007.35
2018-07-20T10:15:35.222Z,1007.35
2018-07-20T10:16:35.216Z,1007.27
2018-07-20T10:17:35.290Z,1007.32
2018-07-20T10:18:35.202Z,1007.31
2018-07-20T10:19:35.220Z,1007.29
2018-07-20T10:20:35.190Z,1007.27
2018-07-20T10:21:35.185Z,1007.27
2018-07-20T10:22:35.176Z,1007.25
2018-07-20T10:23:35.229Z,1007.27
2018-07-20T10:24:35.161Z,1007.22
2018-07-20T10:25:35.207Z,1007.22
2018-07-20T10:26:35.148Z,1007.23
2018-07-20T10:27:35.141Z,1007.26
2018-07-20T10:28:35.195Z,1007.25
2018-07-20T10:29:35.128Z,1007.23
2018-07-20T10:30:35.158Z,1007.25
2018-07-20T10:31:35.117Z,1007.25
2018-07-20T10:32:35.111Z,1007.25
2018-07-20T10:33:35.166Z,1007.23
2018-07-20T10:34:36.078Z,1007.20
2018-07-20T10:35:35.094Z,1007.24
2018-07-20T10:36:35.098Z,1007.23
2018-07-20T10:37:35.080Z,1007.21
2018-07-20T10:38:35.132Z,1007.23
2018-07-20T10:39:35.067Z,1007.18
2018-07-20T10:40:35.060Z,1007.19
2018-07-20T10:41:35.057Z,1007.17
2018-07-20T10:42:35.048Z,1007.15
2018-07-20T10:43:35.104Z,1007.15
2018-07-20T10:44:35.040Z,1007.15
2018-07-20T10:45:35.033Z,1007.12
2018-07-20T10:46:35.023Z,1007.14
2018-07-20T10:47:35.017Z,1007.11
2018-07-20T10:48:35.075Z,1007.10
2018-07-20T10:49:35.027Z,1007.14
2018-07-20T10:50:35.003Z,1007.07
2018-07-20T10:51:34.996Z,1007.10
2018-07-20T10:52:34.991Z,1007.06
2018-07-20T10:53:35.044Z,1007.08
2018-07-20T10:54:34.976Z,1007.03
2018-07-20T10:55:35.567Z,1007.13
2018-07-20T10:56:34.962Z,1007.12
2018-07-20T10:57:34.963Z,1007.09
2018-07-20T10:58:35.012Z,1007.11
2018-07-20T10:59:34.948Z,1007.14
2018-07-20T11:00:34.944Z,1007.06
2018-07-20T11:01:35.039Z,1007.02
2018-07-20T11:02:34.933Z,1007.01
2018-07-20T11:03:34.988Z,1007.05
2018-07-20T11:04:34.924Z,1007.06
2018-07-20T11:05:34.916Z,1006.99
2018-07-20T11:06:42.436Z,1007.03
2018-07-20T11:07:34.905Z,1007.01
2018-07-20T11:08:34.957Z,1006.99
2018-07-20T11:09:34.900Z,1006.99
2018-07-20T11:10:34.882Z,1006.96
2018-07-20T11:11:34.877Z,1006.94
2018-07-20T11:12:34.870Z,1006.98
2018-07-20T11:13:34.968Z,1006.97
2018-07-20T11:14:43.013Z,1006.92
2018-07-20T11:15:34.850Z,1006.90
2018-07-20T11:16:35.623Z,1006.90
2018-07-20T11:17:34.845Z,1006.89
2018-07-20T11:18:43.819Z,1006.93
2018-07-20T11:19:34.828Z,1006.87
2018-07-20T11:20:34.840Z,1006.86
2018-07-20T11:21:34.819Z,1006.82
2018-07-20T11:22:34.807Z,1006.77
2018-07-20T11:23:34.866Z,1006.86
2018-07-20T11:24:34.799Z,1006.83
2018-07-20T11:25:34.793Z,1006.87
2018-07-20T11:26:34.790Z,1006.87
2018-07-20T11:27:34.777Z,1006.77
2018-07-20T11:28:34.832Z,1006.79
2018-07-20T11:29:34.767Z,1006.75
2018-07-20T11:30:35.943Z,1006.75
2018-07-20T11:31:34.758Z,1006.71
2018-07-20T11:32:34.759Z,1006.73
2018-07-20T11:33:34.806Z,1006.69
2018-07-20T11:34:34.782Z,1006.68
2018-07-20T11:35:34.733Z,1006.67
2018-07-20T11:36:34.727Z,1006.67
2018-07-20T11:37:34.738Z,1006.68
2018-07-20T11:38:34.776Z,1006.66
2018-07-20T11:39:34.707Z,1006.66
2018-07-20T11:40:35.651Z,1006.68
2018-07-20T11:41:34.717Z,1006.62
2018-07-20T11:42:34.767Z,1006.62
2018-07-20T11:43:36.097Z,1006.65
2018-07-20T11:44:34.679Z,1006.70
2018-07-20T11:45:34.675Z,1006.69
2018-07-20T11:46:34.752Z,1006.70
2018-07-20T11:47:34.667Z,1006.72
2018-07-20T11:48:34.727Z,1006.67
2018-07-20T11:49:34.650Z,1006.65
2018-07-20T11:50:34.650Z,1006.46
2018-07-20T11:51:34.650Z,1006.57
2018-07-20T11:52:34.636Z,1006.56
2018-07-20T11:53:34.701Z,1006.54
2018-07-20T11:54:34.630Z,1006.45
2018-07-20T11:55:34.624Z,1006.45
2018-07-20T11:56:34.615Z,1006.47
2018-07-20T11:57:34.615Z,1006.49
2018-07-20T11:58:34.670Z,1006.47
2018-07-20T11:59:34.598Z,1006.48
2018-07-20T12:00:34.598Z,1006.39
2018-07-20T12:01:35.138Z,1006.43
2018-07-20T12:02:34.581Z,1006.37
2018-07-20T12:03:34.641Z,1006.38
2018-07-20T12:04:34.580Z,1006.37
2018-07-20T12:05:34.572Z,1006.32